createdAt,value
2018-04-13T00:01:54.231Z,13.63
2018-04-13T00:04:22.814Z,10.97
2018-04-13T00:06:52.383Z,12.73
2018-04-13T00:09:20.850Z,11.43
2018-04-13T00:11:49.433Z,10.70
2018-04-13T00:14:17.958Z,15.07
2018-04-13T00:16:46.443Z,9.90
2018-04-13T00:19:15.206Z,7.90
2018-04-13T00:21:44.987Z,10.30
2018-04-13T00:24:13.447Z,10.17
2018-04-13T00:26:41.920Z,9.90
2018-04-13T00:29:10.489Z,11.53
2018-04-13T00:31:38.607Z,8.43
2018-04-13T00:34:07.030Z,9.40
2018-04-13T00:36:35.513Z,8.43
2018-04-13T00:39:03.075Z,7.60
2018-04-13T00:41:31.530Z,10.43
2018-04-13T00:44:00.018Z,9.10
2018-04-13T00:46:28.498Z,10.63
2018-04-13T00:48:57.384Z,8.57
2018-04-13T00:51:26.918Z,10.80
2018-04-13T00:53:55.427Z,9.17
2018-04-13T00:56:23.918Z,7.40
2018-04-13T00:58:53.171Z,8.23
2018-04-13T01:01:21.649Z,8.97
2018-04-13T01:03:50.135Z,9.70
2018-04-13T01:06:18.550Z,5.50
2018-04-13T01:08:47.041Z,9.90
2018-04-13T01:11:15.677Z,7.57
2018-04-13T01:13:44.144Z,6.73
2018-04-13T01:16:12.724Z,5.87
2018-04-13T01:18:41.319Z,9.33
2018-04-13T01:21:27.228Z,5.40
2018-04-13T01:23:55.731Z,7.90
2018-04-13T01:26:24.203Z,5.13
2018-04-13T01:28:52.726Z,6.70
2018-04-13T01:31:21.203Z,6.50
2018-04-13T01:33:49.705Z,6.37
2018-04-13T01:36:18.166Z,6.10
2018-04-13T01:38:46.587Z,6.17
2018-04-13T01:41:15.025Z,5.50
2018-04-13T01:43:43.519Z,4.93
2018-04-13T01:46:12.423Z,5.37
2018-04-13T01:48:40.960Z,5.77
2018-04-13T01:51:09.442Z,4.67
2018-04-13T01:53:37.952Z,5.80
2018-04-13T01:56:06.399Z,5.30
2018-04-13T01:58:34.865Z,5.87
2018-04-13T02:01:03.315Z,7.20
2018-04-13T02:03:32.547Z,9.10
2018-04-13T02:06:00.999Z,11.77
2018-04-13T02:08:29.478Z,5.60
2018-04-13T02:10:57.690Z,5.10
2018-04-13T02:13:26.980Z,7.60
2018-04-13T02:15:55.485Z,6.47
2018-04-13T02:18:23.632Z,4.93
2018-04-13T02:20:52.499Z,6.27
2018-04-13T02:23:20.941Z,6.17
2018-04-13T02:25:49.359Z,6.47
2018-04-13T02:28:17.494Z,8.90
2018-04-13T02:30:45.930Z,5.67
2018-04-13T02:33:14.403Z,7.83
2018-04-13T02:35:43.205Z,5.50
2018-04-13T02:38:11.679Z,4.37
2018-04-13T02:40:40.167Z,4.40
2018-04-13T02:43:09.003Z,6.90
2018-04-13T02:45:37.530Z,3.90
2018-04-13T02:48:06.061Z,5.93
2018-04-13T02:50:34.526Z,4.23
2018-04-13T02:53:03.386Z,4.47
2018-04-13T02:55:31.897Z,4.23
2018-04-13T02:58:00.410Z,7.93
2018-04-13T03:00:28.636Z,4.00
2018-04-13T03:02:57.090Z,3.90
2018-04-13T03:05:25.525Z,4.70
2018-04-13T03:07:54.009Z,3.20
2018-04-13T03:10:22.462Z,3.53
2018-04-13T03:12:50.974Z,4.27
2018-04-13T03:15:19.475Z,3.20
2018-04-13T03:17:48.935Z,3.00
2018-04-13T03:20:17.372Z,3.80
2018-04-13T03:22:45.854Z,3.27
2018-04-13T03:25:14.330Z,2.83
2018-04-13T03:27:42.810Z,4.23
2018-04-13T03:30:11.274Z,2.53
2018-04-13T03:32:39.380Z,2.57
2018-04-13T03:35:07.876Z,2.53
2018-04-13T03:37:36.308Z,3.07
2018-04-13T03:40:04.473Z,2.60
2018-04-13T03:42:32.904Z,2.97
2018-04-13T03:45:01.608Z,3.90
2018-04-13T03:47:30.066Z,2.67
2018-04-13T03:49:58.545Z,2.50
2018-04-13T03:52:27.057Z,2.40
2018-04-13T03:54:55.512Z,2.60
2018-04-13T03:57:24.011Z,3.43
2018-04-13T03:59:52.500Z,3.90
2018-04-13T04:02:20.966Z,3.10
2018-04-13T04:04:50.213Z,3.53
2018-04-13T04:07:19.034Z,3.30
2018-04-13T04:09:47.445Z,3.43
2018-04-13T04:12:15.922Z,2.60
2018-04-13T04:14:44.347Z,4.70
2018-04-13T04:17:13.061Z,3.37
2018-04-13T04:19:53.282Z,4.10
2018-04-13T04:22:33.051Z,2.80
2018-04-13T04:25:12.577Z,1.97
2018-04-13T04:27:41.518Z,2.77
2018-04-13T04:30:12.665Z,2.63
2018-04-13T04:32:41.186Z,2.63
2018-04-13T04:35:09.616Z,5.00
2018-04-13T04:37:38.065Z,4.53
2018-04-13T04:40:06.559Z,2.63
2018-04-13T04:42:34.996Z,1.90
2018-04-13T04:45:03.525Z,1.93
2018-04-13T04:47:32.011Z,3.27
2018-04-13T04:50:00.641Z,2.07
2018-04-13T04:52:29.842Z,1.80
2018-04-13T04:54:58.324Z,1.67
2018-04-13T04:57:27.575Z,2.40
2018-04-13T05:00:01.486Z,5.40
2018-04-13T05:02:30.008Z,2.73
2018-04-13T05:04:58.443Z,3.23
2018-04-13T05:07:26.900Z,6.33
2018-04-13T05:09:55.395Z,3.33
2018-04-13T05:12:23.870Z,3.73
2018-04-13T05:14:53.174Z,2.07
2018-04-13T05:17:21.750Z,2.37
2018-04-13T05:19:50.207Z,2.13
2018-04-13T05:22:18.698Z,2.77
2018-04-13T05:24:46.981Z,3.90
2018-04-13T05:27:15.541Z,1.90
2018-04-13T05:29:43.993Z,2.70
2018-04-13T05:32:12.406Z,4.63
2018-04-13T05:34:41.080Z,12.70
2018-04-13T05:37:09.595Z,4.83
2018-04-13T05:39:38.099Z,2.90
2018-04-13T05:42:06.566Z,2.80
2018-04-13T05:44:35.074Z,3.87
2018-04-13T05:47:03.571Z,2.73
2018-04-13T05:49:32.217Z,2.93
2018-04-13T05:52:02.700Z,3.57
2018-04-13T05:54:32.101Z,2.60
2018-04-13T05:57:00.672Z,1.73
2018-04-13T05:59:29.119Z,2.80
2018-04-13T06:01:57.618Z,3.23
2018-04-13T06:04:26.088Z,1.40
2018-04-13T06:06:54.465Z,2.80
2018-04-13T06:09:23.193Z,2.90
2018-04-13T06:11:51.674Z,2.90
2018-04-13T06:14:20.181Z,2.60
2018-04-13T06:16:48.724Z,7.37
2018-04-13T06:19:17.221Z,2.27
2018-04-13T06:21:46.495Z,2.50
2018-04-13T06:24:15.235Z,4.37
2018-04-13T06:26:43.754Z,3.03
2018-04-13T06:29:12.437Z,3.93
2018-04-13T06:31:40.774Z,2.80
2018-04-13T06:34:09.291Z,3.63
2018-04-13T06:36:38.530Z,3.40
2018-04-13T06:39:06.530Z,6.00
2018-04-13T06:41:35.235Z,3.33
2018-04-13T06:44:09.014Z,3.07
2018-04-13T06:46:50.708Z,3.23
2018-04-13T06:49:22.452Z,3.30
2018-04-13T06:51:52.080Z,3.53
2018-04-13T06:54:26.594Z,2.33
2018-04-13T06:56:55.104Z,2.13
2018-04-13T06:59:23.579Z,1.80
2018-04-13T07:01:52.099Z,1.63
2018-04-13T07:04:20.605Z,2.10
2018-04-13T07:06:48.797Z,4.30
2018-04-13T07:09:21.479Z,2.27
2018-04-13T07:11:49.967Z,2.07
2018-04-13T07:14:18.422Z,4.40
2018-04-13T07:16:47.185Z,5.30
2018-04-13T07:19:16.606Z,5.67
2018-04-13T07:21:45.265Z,6.23
2018-04-13T07:24:13.834Z,5.10
2018-04-13T07:26:42.312Z,4.40
2018-04-13T07:29:10.936Z,3.10
2018-04-13T07:31:39.422Z,3.43
2018-04-13T07:34:07.895Z,2.00
2018-04-13T07:36:38.329Z,2.60
2018-04-13T07:39:06.729Z,1.43
2018-04-13T07:41:34.990Z,2.50
2018-04-13T07:44:04.297Z,4.30
2018-04-13T07:46:34.027Z,3.20
2018-04-13T07:49:03.828Z,1.40
2018-04-13T07:51:32.471Z,1.30
2018-04-13T07:54:01.102Z,1.13
2018-04-13T07:56:29.550Z,0.80
2018-04-13T07:58:58.424Z,3.67
2018-04-13T08:01:26.866Z,1.00
2018-04-13T08:03:56.816Z,1.90
2018-04-13T08:06:24.974Z,1.50
2018-04-13T08:08:53.122Z,1.20
2018-04-13T08:11:21.527Z,1.37
2018-04-13T08:13:50.783Z,1.87
2018-04-13T08:16:19.045Z,1.40
2018-04-13T08:18:48.349Z,1.93
2018-04-13T08:21:16.808Z,1.17
2018-04-13T08:23:47.302Z,1.70
2018-04-13T08:26:17.920Z,1.10
2018-04-13T08:28:46.398Z,2.17
2018-04-13T08:31:16.494Z,1.50
2018-04-13T08:33:45.010Z,3.00
2018-04-13T08:36:13.539Z,1.33
2018-04-13T08:38:42.020Z,1.40
2018-04-13T08:41:10.636Z,2.03
2018-04-13T08:43:39.993Z,1.30
2018-04-13T08:46:08.488Z,3.23
2018-04-13T08:48:37.108Z,1.77
2018-04-13T08:51:05.705Z,1.40
2018-04-13T08:53:34.143Z,1.30
2018-04-13T08:56:03.318Z,1.87
2018-04-13T08:58:31.746Z,1.83
2018-04-13T09:01:01.193Z,2.00
2018-04-13T09:03:29.934Z,2.23
2018-04-13T09:05:58.188Z,1.40
2018-04-13T09:08:27.634Z,1.50
2018-04-13T09:11:12.076Z,1.80
2018-04-13T09:13:40.608Z,1.37
2018-04-13T09:16:09.115Z,1.80
2018-04-13T09:18:37.644Z,5.10
2018-04-13T09:21:12.307Z,1.60
2018-04-13T09:23:40.836Z,1.80
2018-04-13T09:26:09.523Z,1.77
2018-04-13T09:28:38.059Z,2.57
2018-04-13T09:31:06.360Z,2.10
2018-04-13T09:33:34.829Z,5.73
2018-04-13T09:36:03.334Z,4.20
2018-04-13T09:38:31.928Z,5.37
2018-04-13T09:41:00.439Z,2.60
2018-04-13T09:43:28.932Z,5.80
2018-04-13T09:45:58.053Z,2.53
2018-04-13T09:48:27.412Z,1.90
2018-04-13T09:50:55.945Z,3.33
2018-04-13T09:53:24.405Z,1.83
2018-04-13T09:55:52.888Z,2.00
2018-04-13T09:58:21.417Z,3.27
2018-04-13T10:01:02.351Z,4.40
2018-04-13T10:03:36.253Z,1.90
2018-04-13T10:06:04.867Z,2.50
2018-04-13T10:11:31.088Z,2.77
2018-04-13T10:14:00.376Z,1.83
2018-04-13T10:16:29.724Z,2.90
2018-04-13T10:19:26.418Z,1.50
2018-04-13T10:21:58.140Z,2.00
2018-04-13T10:24:27.777Z,3.93
2018-04-13T10:26:58.286Z,4.30
2018-04-13T10:29:27.102Z,2.20
2018-04-13T10:34:58.002Z,1.77
2018-04-13T10:40:34.656Z,1.67
2018-04-13T10:45:59.826Z,7.40
2018-04-13T10:48:28.174Z,2.47
2018-04-13T10:50:56.647Z,2.30
2018-04-13T10:53:38.133Z,2.33
2018-04-13T10:56:22.359Z,3.27
2018-04-13T11:01:35.832Z,4.93
2018-04-13T11:04:04.391Z,4.00
2018-04-13T11:06:32.893Z,4.03
2018-04-13T11:12:23.596Z,2.93
2018-04-13T11:14:58.064Z,3.00
2018-04-13T11:20:29.000Z,5.57
2018-04-13T11:23:00.929Z,4.00
2018-04-13T11:25:51.690Z,3.20
2018-04-13T11:28:20.550Z,3.13
2018-04-13T11:31:07.795Z,3.70
2018-04-13T11:33:36.359Z,5.67
2018-04-13T11:39:00.845Z,3.63
2018-04-13T11:41:35.397Z,5.57
2018-04-13T11:44:09.153Z,4.70
2018-04-13T11:46:41.816Z,4.13
2018-04-13T11:52:06.022Z,4.80
2018-04-13T11:54:34.571Z,5.73
2018-04-13T11:57:03.858Z,4.90
2018-04-13T12:02:40.252Z,5.73
2018-04-13T12:08:12.230Z,7.67
2018-04-13T12:10:40.871Z,5.87
2018-04-13T12:13:15.030Z,7.07
2018-04-13T12:18:49.045Z,6.73
2018-04-13T12:21:36.464Z,7.03
2018-04-13T12:24:04.967Z,7.43
2018-04-13T12:26:33.532Z,6.03
2018-04-13T12:29:02.326Z,7.00
2018-04-13T12:31:30.794Z,4.57
2018-04-13T12:34:08.098Z,10.37
2018-04-13T12:36:39.596Z,10.27
2018-04-13T12:42:10.603Z,13.30
2018-04-13T12:44:39.105Z,5.67
2018-04-13T12:47:29.118Z,7.83
2018-04-13T12:49:57.627Z,8.27
2018-04-13T12:52:33.928Z,5.23
2018-04-13T12:58:14.210Z,4.00
2018-04-13T13:00:55.372Z,6.50
2018-04-13T13:03:25.272Z,4.97
2018-04-13T13:09:07.471Z,8.23
2018-04-13T13:23:41.505Z,7.97
2018-04-13T13:26:10.034Z,5.03
2018-04-13T13:28:54.288Z,5.63
2018-04-13T13:31:23.089Z,4.40
2018-04-13T13:33:51.601Z,4.20
2018-04-13T13:36:20.099Z,4.37
2018-04-13T13:38:48.606Z,5.17
2018-04-13T13:41:17.074Z,5.57
2018-04-13T13:43:45.569Z,4.90
2018-04-13T13:46:13.788Z,5.60
2018-04-13T13:48:42.292Z,6.73
2018-04-13T13:51:10.830Z,3.97
2018-04-13T13:53:39.313Z,5.70
2018-04-13T13:56:07.812Z,6.67
2018-04-13T13:58:36.346Z,5.57
2018-04-13T14:01:04.851Z,5.00
2018-04-13T14:03:33.301Z,4.23
2018-04-13T14:06:01.791Z,4.13
2018-04-13T14:08:30.358Z,6.13
2018-04-13T14:10:58.852Z,4.93
2018-04-13T14:13:27.301Z,4.70
2018-04-13T14:15:55.816Z,5.27
2018-04-13T14:18:25.229Z,5.20
2018-04-13T14:20:53.726Z,8.30
2018-04-13T14:23:22.204Z,6.13
2018-04-13T14:25:50.727Z,14.70
2018-04-13T14:28:19.176Z,4.50
2018-04-13T14:30:47.675Z,4.03
2018-04-13T14:33:16.922Z,6.20
2018-04-13T14:35:45.088Z,3.73
2018-04-13T14:38:13.565Z,8.37
2018-04-13T14:40:42.002Z,5.20
2018-04-13T14:43:10.488Z,4.63
2018-04-13T14:45:40.984Z,7.50
2018-04-13T14:48:09.504Z,5.27
2018-04-13T14:50:38.062Z,5.83
2018-04-13T14:53:13.011Z,6.40
2018-04-13T14:55:42.673Z,7.60
2018-04-13T14:58:11.239Z,7.83
2018-04-13T15:00:39.778Z,7.20
2018-04-13T15:03:08.315Z,11.60
2018-04-13T15:05:36.788Z,12.93
2018-04-13T15:08:05.298Z,9.97
2018-04-13T15:10:34.790Z,12.23
2018-04-13T15:13:03.273Z,10.23
2018-04-13T15:15:31.760Z,7.33
2018-04-13T15:18:00.387Z,10.70
2018-04-13T15:20:28.899Z,10.50
2018-04-13T15:22:57.334Z,13.10
2018-04-13T15:25:25.632Z,11.70
2018-04-13T15:27:54.147Z,10.60
2018-04-13T15:30:22.703Z,11.47
2018-04-13T15:32:51.242Z,11.10
2018-04-13T15:35:19.778Z,15.07
2018-04-13T15:37:49.222Z,15.03
2018-04-13T15:40:17.708Z,13.27
2018-04-13T15:42:46.400Z,11.97
2018-04-13T15:45:14.967Z,12.83
2018-04-13T15:47:43.450Z,13.73
2018-04-13T15:50:11.986Z,14.13
2018-04-13T15:52:40.703Z,11.90
2018-04-13T15:55:09.240Z,15.63
2018-04-13T15:57:38.493Z,12.83
2018-04-13T16:03:04.399Z,13.77
2018-04-13T16:05:40.292Z,15.90
2018-04-13T16:08:11.113Z,13.20
2018-04-13T16:10:45.167Z,13.83
2018-04-13T16:13:14.634Z,14.97
2018-04-13T16:15:44.345Z,14.30
2018-04-13T16:18:13.958Z,14.70
2018-04-13T16:20:49.100Z,16.37
2018-04-13T16:26:02.848Z,13.27
2018-04-13T16:28:32.397Z,16.53
2018-04-13T16:31:02.025Z,16.37
2018-04-13T16:33:33.681Z,15.30
2018-04-13T16:36:03.331Z,15.27
2018-04-13T16:38:32.540Z,14.80
2018-04-13T16:41:02.021Z,14.80
2018-04-13T16:43:49.428Z,16.60
2018-04-13T16:46:18.985Z,15.93
2018-04-13T16:48:49.060Z,20.27
2018-04-13T16:51:19.372Z,22.07
2018-04-13T16:53:49.838Z,18.77
2018-04-13T16:56:19.424Z,21.70
2018-04-13T16:58:49.132Z,19.43
2018-04-13T17:01:18.988Z,21.13
2018-04-13T17:03:48.614Z,19.40
2018-04-13T17:06:18.120Z,25.17
2018-04-13T17:08:47.625Z,22.70
2018-04-13T17:11:17.188Z,25.93
2018-04-13T17:13:47.028Z,25.47
2018-04-13T17:16:19.523Z,23.57
2018-04-13T17:18:49.660Z,23.23
2018-04-13T17:21:26.006Z,22.07
2018-04-13T17:23:57.636Z,27.53
2018-04-13T17:26:52.146Z,28.60
2018-04-13T17:29:21.811Z,27.63
2018-04-13T17:31:53.806Z,26.03
2018-04-13T17:37:14.299Z,27.67
2018-04-13T17:39:55.277Z,26.50
2018-04-13T17:42:23.870Z,24.23
2018-04-13T17:44:52.542Z,26.90
2018-04-13T17:47:22.159Z,27.93
2018-04-13T17:49:51.629Z,28.57
2018-04-13T17:52:20.309Z,30.70
2018-04-13T17:54:48.775Z,25.33
2018-04-13T17:57:17.305Z,29.50
2018-04-13T17:59:45.839Z,30.97
2018-04-13T18:05:23.368Z,29.57
2018-04-13T18:10:38.451Z,29.77
2018-04-13T18:16:21.391Z,28.17
2018-04-13T18:18:49.989Z,26.47
2018-04-13T18:21:18.648Z,28.43
2018-04-13T18:23:56.901Z,31.30
2018-04-13T18:26:25.428Z,29.07
2018-04-13T18:28:54.709Z,29.53
2018-04-13T18:31:50.922Z,24.73
2018-04-13T18:34:19.495Z,26.47
2018-04-13T18:37:27.075Z,31.80
2018-04-13T18:39:55.673Z,26.20
2018-04-13T18:42:24.501Z,28.53
2018-04-13T18:45:12.311Z,29.10
2018-04-13T18:47:58.647Z,27.33
2018-04-13T18:50:51.939Z,34.13
2018-04-13T18:53:20.483Z,28.27
2018-04-13T18:55:49.871Z,30.50
2018-04-13T18:58:18.453Z,31.27
2018-04-13T19:00:47.331Z,31.37
2018-04-13T19:03:38.601Z,30.40
2018-04-13T19:06:07.142Z,30.80
2018-04-13T19:17:21.373Z,32.97
2018-04-13T19:19:57.156Z,32.97
2018-04-13T19:22:34.670Z,32.13
2018-04-13T19:28:03.857Z,31.50
2018-04-13T19:45:21.599Z,28.37
2018-04-13T19:57:08.141Z,32.27
2018-04-13T19:59:47.689Z,32.07
2018-04-13T20:05:23.355Z,29.80
2018-04-13T20:08:09.231Z,32.80
2018-04-13T20:10:41.017Z,35.10
2018-04-13T20:16:13.773Z,36.70
2018-04-13T20:18:44.946Z,33.00
2018-04-13T20:24:12.221Z,33.63
2018-04-13T20:26:41.962Z,32.17
2018-04-13T20:29:13.227Z,35.07
2018-04-13T20:34:40.452Z,32.47
2018-04-13T20:37:10.373Z,30.83
2018-04-13T20:42:35.153Z,31.20
2018-04-13T20:45:04.661Z,29.40
2018-04-13T20:47:34.189Z,28.27
2018-04-13T20:50:06.033Z,29.90
2018-04-13T20:52:41.602Z,30.17
2018-04-13T20:58:10.993Z,33.67
2018-04-13T21:00:40.631Z,29.20
2018-04-13T21:06:00.213Z,29.10
2018-04-13T21:08:29.706Z,28.00
2018-04-13T21:10:59.193Z,26.83
2018-04-13T21:13:28.747Z,27.07
2018-04-13T21:16:10.267Z,33.30
2018-04-13T21:18:56.237Z,32.47
2018-04-13T21:21:25.763Z,25.23
2018-04-13T21:23:55.323Z,33.23
2018-04-13T21:26:24.857Z,30.50
2018-04-13T21:28:54.336Z,28.90
2018-04-13T21:36:48.132Z,27.23
2018-04-13T21:39:39.125Z,24.93
2018-04-13T21:42:21.414Z,26.90
2018-04-13T21:47:45.195Z,29.23
2018-04-13T21:50:14.665Z,28.73
2018-04-13T21:58:21.465Z,26.03
2018-04-13T22:00:50.982Z,25.20
2018-04-13T22:03:23.413Z,25.90
2018-04-13T22:05:52.923Z,28.13
2018-04-13T22:13:50.538Z,24.87
2018-04-13T22:16:20.169Z,26.60
2018-04-13T22:24:40.391Z,23.90
2018-04-13T22:27:09.978Z,23.23
2018-04-13T22:32:24.714Z,26.87
2018-04-13T22:34:54.420Z,23.03
2018-04-13T22:40:03.573Z,19.80
2018-04-13T22:42:33.068Z,18.73
2018-04-13T22:48:00.415Z,20.00
2018-04-13T22:53:06.785Z,23.53
2018-04-13T22:55:36.248Z,21.97
2018-04-13T22:58:05.752Z,18.57
2018-04-13T23:00:39.843Z,20.87
2018-04-13T23:03:16.908Z,13.10
2018-04-13T23:05:46.637Z,12.40
2018-04-13T23:14:08.428Z,11.60
2018-04-13T23:16:42.402Z,14.03
2018-04-13T23:19:24.413Z,12.27
2018-04-13T23:21:53.964Z,12.13
2018-04-13T23:24:30.052Z,12.20
2018-04-13T23:27:09.111Z,9.47
2018-04-13T23:30:09.983Z,10.87
2018-04-13T23:32:39.455Z,11.20
2018-04-13T23:35:09.714Z,10.00
2018-04-13T23:37:39.179Z,9.50
2018-04-13T23:48:49.138Z,12.53
2018-04-13T23:51:18.697Z,10.40
2018-04-13T23:59:42.861Z,13.30
